sensor_id;sensor_type;location;lat;lon;timestamp;temperature;humidity
52879;DHT22;38747;53.140;6.498;2023-08-21T00:00:07;15.00;99.90
52879;DHT22;38747;53.140;6.498;2023-08-21T00:02:33;15.00;99.90
52879;DHT22;38747;53.140;6.498;2023-08-21T00:04:58;15.00;99.90
52879;DHT22;38747;53.140;6.498;2023-08-21T00:07:24;14.90;99.90
52879;DHT22;38747;53.140;6.498;2023-08-21T00:09:50;14.80;99.90
52879;DHT22;38747;53.140;6.498;2023-08-21T00:12:15;14.80;99.90
52879;DHT22;38747;53.140;6.498;2023-08-21T00:14:41;14.80;99.90
52879;DHT22;38747;53.140;6.498;2023-08-21T00:17:07;14.80;99.90
52879;DHT22;38747;53.140;6.498;2023-08-21T00:19:34;14.80;99.90
52879;DHT22;38747;53.140;6.498;2023-08-21T00:22:00;14.80;99.90
52879;DHT22;38747;53.140;6.498;2023-08-21T00:24:26;14.70;99.90
52879;DHT22;38747;53.140;6.498;2023-08-21T00:26:51;14.70;99.90
52879;DHT22;38747;53.140;6.498;2023-08-21T00:29:17;14.70;99.90
52879;DHT22;38747;53.140;6.498;2023-08-21T00:31:42;14.70;99.90
52879;DHT22;38747;53.140;6.498;2023-08-21T00:34:08;14.60;99.90
52879;DHT22;38747;53.140;6.498;2023-08-21T00:36:34;14.60;99.90
52879;DHT22;38747;53.140;6.498;2023-08-21T00:38:59;14.60;99.90
52879;DHT22;38747;53.140;6.498;2023-08-21T00:41:25;14.60;99.90
52879;DHT22;38747;53.140;6.498;2023-08-21T00:43:50;14.60;99.90
52879;DHT22;38747;53.140;6.498;2023-08-21T00:46:16;14.60;99.90
52879;DHT22;38747;53.140;6.498;2023-08-21T00:48:43;14.50;99.90
52879;DHT22;38747;53.140;6.498;2023-08-21T00:51:10;14.50;99.90
52879;DHT22;38747;53.140;6.498;2023-08-21T00:53:37;14.40;99.90
52879;DHT22;38747;53.140;6.498;2023-08-21T00:56:02;14.40;99.90
52879;DHT22;38747;53.140;6.498;2023-08-21T00:58:28;14.30;99.90
52879;DHT22;38747;53.140;6.498;2023-08-21T01:00:54;14.30;99.90
52879;DHT22;38747;53.140;6.498;2023-08-21T01:03:20;14.30;99.90
52879;DHT22;38747;53.140;6.498;2023-08-21T01:05:46;14.30;99.90
52879;DHT22;38747;53.140;6.498;2023-08-21T01:08:25;14.30;99.90
52879;DHT22;38747;53.140;6.498;2023-08-21T01:16:34;14.20;99.90
52879;DHT22;38747;53.140;6.498;2023-08-21T01:19:01;14.20;99.90
52879;DHT22;38747;53.140;6.498;2023-08-21T01:21:28;14.20;99.90
52879;DHT22;38747;53.140;6.498;2023-08-21T01:23:54;14.10;99.90
52879;DHT22;38747;53.140;6.498;2023-08-21T01:26:20;14.10;99.90
52879;DHT22;38747;53.140;6.498;2023-08-21T01:28:46;14.00;99.90
52879;DHT22;38747;53.140;6.498;2023-08-21T01:31:21;14.10;99.90
52879;DHT22;38747;53.140;6.498;2023-08-21T01:33:50;14.10;99.90
52879;DHT22;38747;53.140;6.498;2023-08-21T01:36:17;14.00;99.90
52879;DHT22;38747;53.140;6.498;2023-08-21T01:38:44;13.90;99.90
52879;DHT22;38747;53.140;6.498;2023-08-21T01:41:10;13.90;99.90
52879;DHT22;38747;53.140;6.498;2023-08-21T01:43:35;13.90;99.90
52879;DHT22;38747;53.140;6.498;2023-08-21T01:46:02;13.90;99.90
52879;DHT22;38747;53.140;6.498;2023-08-21T01:48:28;13.80;99.90
52879;DHT22;38747;53.140;6.498;2023-08-21T01:50:54;13.80;99.90
52879;DHT22;38747;53.140;6.498;2023-08-21T01:53:20;13.80;99.90
52879;DHT22;38747;53.140;6.498;2023-08-21T01:55:45;13.90;99.90
52879;DHT22;38747;53.140;6.498;2023-08-21T01:58:11;13.90;99.90
52879;DHT22;38747;53.140;6.498;2023-08-21T02:00:36;13.80;99.90
52879;DHT22;38747;53.140;6.498;2023-08-21T02:03:02;13.80;99.90
52879;DHT22;38747;53.140;6.498;2023-08-21T02:05:28;13.80;99.90
52879;DHT22;38747;53.140;6.498;2023-08-21T02:07:53;13.80;99.90
52879;DHT22;38747;53.140;6.498;2023-08-21T02:10:19;13.70;99.90
52879;DHT22;38747;53.140;6.498;2023-08-21T02:12:45;13.70;99.90
52879;DHT22;38747;53.140;6.498;2023-08-21T02:15:10;13.70;99.90
52879;DHT22;38747;53.140;6.498;2023-08-21T02:17:36;13.60;99.90
52879;DHT22;38747;53.140;6.498;2023-08-21T02:20:02;13.50;99.90
52879;DHT22;38747;53.140;6.498;2023-08-21T02:22:27;13.50;99.90
52879;DHT22;38747;53.140;6.498;2023-08-21T02:24:53;13.50;99.90
52879;DHT22;38747;53.140;6.498;2023-08-21T02:27:19;13.40;99.90
52879;DHT22;38747;53.140;6.498;2023-08-21T02:29:45;13.40;99.90
52879;DHT22;38747;53.140;6.498;2023-08-21T02:32:10;13.40;99.90
52879;DHT22;38747;53.140;6.498;2023-08-21T02:34:36;13.40;99.90
52879;DHT22;38747;53.140;6.498;2023-08-21T02:37:01;13.30;99.90
52879;DHT22;38747;53.140;6.498;2023-08-21T02:39:28;13.30;99.90
52879;DHT22;38747;53.140;6.498;2023-08-21T02:41:54;13.30;99.90
52879;DHT22;38747;53.140;6.498;2023-08-21T02:44:19;13.30;99.90
52879;DHT22;38747;53.140;6.498;2023-08-21T02:46:45;13.30;99.90
52879;DHT22;38747;53.140;6.498;2023-08-21T02:49:10;13.30;99.90
52879;DHT22;38747;53.140;6.498;2023-08-21T02:51:36;13.30;99.90
52879;DHT22;38747;53.140;6.498;2023-08-21T02:54:02;13.30;99.90
52879;DHT22;38747;53.140;6.498;2023-08-21T02:56:27;13.20;99.90
52879;DHT22;38747;53.140;6.498;2023-08-21T02:58:53;13.10;99.90
52879;DHT22;38747;53.140;6.498;2023-08-21T03:01:19;13.10;99.90
52879;DHT22;38747;53.140;6.498;2023-08-21T03:03:44;13.10;99.90
52879;DHT22;38747;53.140;6.498;2023-08-21T03:06:10;13.20;99.90
52879;DHT22;38747;53.140;6.498;2023-08-21T03:08:35;13.30;99.90
52879;DHT22;38747;53.140;6.498;2023-08-21T03:11:01;13.30;99.90
52879;DHT22;38747;53.140;6.498;2023-08-21T03:13:27;13.30;99.90
52879;DHT22;38747;53.140;6.498;2023-08-21T03:15:52;13.30;99.90
52879;DHT22;38747;53.140;6.498;2023-08-21T03:18:18;13.30;99.90
52879;DHT22;38747;53.140;6.498;2023-08-21T03:20:45;13.20;99.90
52879;DHT22;38747;53.140;6.498;2023-08-21T03:23:11;13.10;99.90
52879;DHT22;38747;53.140;6.498;2023-08-21T03:25:37;13.10;99.90
52879;DHT22;38747;53.140;6.498;2023-08-21T03:28:03;13.10;99.90
52879;DHT22;38747;53.140;6.498;2023-08-21T03:30:28;13.10;99.90
52879;DHT22;38747;53.140;6.498;2023-08-21T03:32:54;13.10;99.90
52879;DHT22;38747;53.140;6.498;2023-08-21T03:35:20;13.10;99.90
52879;DHT22;38747;53.140;6.498;2023-08-21T03:37:45;13.10;99.90
52879;DHT22;38747;53.140;6.498;2023-08-21T03:40:11;13.10;99.90
52879;DHT22;38747;53.140;6.498;2023-08-21T03:42:37;13.10;99.90
52879;DHT22;38747;53.140;6.498;2023-08-21T03:45:03;13.10;99.90
52879;DHT22;38747;53.140;6.498;2023-08-21T03:47:32;13.10;99.90
52879;DHT22;38747;53.140;6.498;2023-08-21T03:49:57;13.00;99.90
52879;DHT22;38747;53.140;6.498;2023-08-21T03:52:23;13.00;99.90
52879;DHT22;38747;53.140;6.498;2023-08-21T03:54:48;13.00;99.90
52879;DHT22;38747;53.140;6.498;2023-08-21T03:57:14;13.00;99.90
52879;DHT22;38747;53.140;6.498;2023-08-21T03:59:40;12.90;99.90
52879;DHT22;38747;53.140;6.498;2023-08-21T04:02:06;12.90;99.90
52879;DHT22;38747;53.140;6.498;2023-08-21T04:04:31;12.90;99.90
52879;DHT22;38747;53.140;6.498;2023-08-21T04:06:57;12.90;99.90
52879;DHT22;38747;53.140;6.498;2023-08-21T04:09:22;12.90;99.90
52879;DHT22;38747;53.140;6.498;2023-08-21T04:11:48;12.90;99.90
52879;DHT22;38747;53.140;6.498;2023-08-21T04:14:14;12.90;99.90
52879;DHT22;38747;53.140;6.498;2023-08-21T04:16:39;12.90;99.90
52879;DHT22;38747;53.140;6.498;2023-08-21T04:19:05;12.90;99.90
52879;DHT22;38747;53.140;6.498;2023-08-21T04:21:31;12.80;99.90
52879;DHT22;38747;53.140;6.498;2023-08-21T04:23:57;12.80;99.90
52879;DHT22;38747;53.140;6.498;2023-08-21T04:26:22;12.70;99.90
52879;DHT22;38747;53.140;6.498;2023-08-21T04:28:48;12.80;99.90
52879;DHT22;38747;53.140;6.498;2023-08-21T04:31:14;12.80;99.90
52879;DHT22;38747;53.140;6.498;2023-08-21T04:33:39;12.80;99.90
52879;DHT22;38747;53.140;6.498;2023-08-21T04:36:05;12.80;99.90
52879;DHT22;38747;53.140;6.498;2023-08-21T04:38:31;12.80;99.90
52879;DHT22;38747;53.140;6.498;2023-08-21T04:41:00;12.80;99.90
52879;DHT22;38747;53.140;6.498;2023-08-21T04:43:30;12.80;99.90
52879;DHT22;38747;53.140;6.498;2023-08-21T04:45:56;12.80;99.90
52879;DHT22;38747;53.140;6.498;2023-08-21T04:48:21;12.80;99.90
52879;DHT22;38747;53.140;6.498;2023-08-21T04:50:47;12.90;99.90
52879;DHT22;38747;53.140;6.498;2023-08-21T04:53:13;12.90;99.90
52879;DHT22;38747;53.140;6.498;2023-08-21T04:55:42;12.90;99.90
52879;DHT22;38747;53.140;6.498;2023-08-21T04:58:09;12.90;99.90
52879;DHT22;38747;53.140;6.498;2023-08-21T05:00:35;12.90;99.90
52879;DHT22;38747;53.140;6.498;2023-08-21T05:03:01;12.90;99.90
52879;DHT22;38747;53.140;6.498;2023-08-21T05:05:26;12.90;99.90
52879;DHT22;38747;53.140;6.498;2023-08-21T05:07:53;12.90;99.90
52879;DHT22;38747;53.140;6.498;2023-08-21T05:10:19;13.00;99.90
52879;DHT22;38747;53.140;6.498;2023-08-21T05:12:45;13.00;99.90
52879;DHT22;38747;53.140;6.498;2023-08-21T05:15:11;13.00;99.90
52879;DHT22;38747;53.140;6.498;2023-08-21T05:17:36;13.00;99.90
52879;DHT22;38747;53.140;6.498;2023-08-21T05:20:02;13.00;99.90
52879;DHT22;38747;53.140;6.498;2023-08-21T05:22:28;13.00;99.90
52879;DHT22;38747;53.140;6.498;2023-08-21T05:24:54;13.00;99.90
52879;DHT22;38747;53.140;6.498;2023-08-21T05:27:20;13.10;99.90
52879;DHT22;38747;53.140;6.498;2023-08-21T05:29:48;13.10;99.90
52879;DHT22;38747;53.140;6.498;2023-08-21T05:32:16;13.20;99.90
52879;DHT22;38747;53.140;6.498;2023-08-21T05:34:42;13.30;99.90
52879;DHT22;38747;53.140;6.498;2023-08-21T05:37:08;13.30;99.90
52879;DHT22;38747;53.140;6.498;2023-08-21T05:39:33;13.40;99.90
52879;DHT22;38747;53.140;6.498;2023-08-21T05:42:02;13.40;99.90
52879;DHT22;38747;53.140;6.498;2023-08-21T05:44:28;13.50;99.90
52879;DHT22;38747;53.140;6.498;2023-08-21T05:46:53;13.50;99.90
52879;DHT22;38747;53.140;6.498;2023-08-21T05:49:19;13.60;99.90
52879;DHT22;38747;53.140;6.498;2023-08-21T05:51:45;13.70;99.90
52879;DHT22;38747;53.140;6.498;2023-08-21T05:54:10;13.70;99.90
52879;DHT22;38747;53.140;6.498;2023-08-21T05:56:36;13.70;99.90
52879;DHT22;38747;53.140;6.498;2023-08-21T05:59:02;13.80;99.90
52879;DHT22;38747;53.140;6.498;2023-08-21T06:01:27;13.90;99.90
52879;DHT22;38747;53.140;6.498;2023-08-21T06:03:53;13.90;99.90
52879;DHT22;38747;53.140;6.498;2023-08-21T06:06:19;14.00;99.90
52879;DHT22;38747;53.140;6.498;2023-08-21T06:08:44;14.20;99.90
52879;DHT22;38747;53.140;6.498;2023-08-21T06:11:10;14.40;99.90
52879;DHT22;38747;53.140;6.498;2023-08-21T06:13:36;14.60;99.90
52879;DHT22;38747;53.140;6.498;2023-08-21T06:16:01;14.80;99.90
52879;DHT22;38747;53.140;6.498;2023-08-21T06:18:28;14.90;99.90
52879;DHT22;38747;53.140;6.498;2023-08-21T06:20:54;15.10;99.90
52879;DHT22;38747;53.140;6.498;2023-08-21T06:23:20;15.30;99.90
52879;DHT22;38747;53.140;6.498;2023-08-21T06:25:49;15.40;99.90
52879;DHT22;38747;53.140;6.498;2023-08-21T06:28:15;15.50;99.90
52879;DHT22;38747;53.140;6.498;2023-08-21T06:30:41;15.80;99.90
52879;DHT22;38747;53.140;6.498;2023-08-21T06:33:07;15.80;99.90
52879;DHT22;38747;53.140;6.498;2023-08-21T06:35:36;15.80;99.90
52879;DHT22;38747;53.140;6.498;2023-08-21T06:38:02;15.80;99.90
52879;DHT22;38747;53.140;6.498;2023-08-21T06:40:27;15.90;99.90
52879;DHT22;38747;53.140;6.498;2023-08-21T06:42:53;15.90;99.90
52879;DHT22;38747;53.140;6.498;2023-08-21T06:45:19;16.00;99.90
52879;DHT22;38747;53.140;6.498;2023-08-21T06:47:44;16.10;99.90
52879;DHT22;38747;53.140;6.498;2023-08-21T06:50:10;16.10;99.90
52879;DHT22;38747;53.140;6.498;2023-08-21T06:52:36;16.20;99.90
52879;DHT22;38747;53.140;6.498;2023-08-21T06:55:01;16.30;99.90
52879;DHT22;38747;53.140;6.498;2023-08-21T06:57:27;16.30;99.90
52879;DHT22;38747;53.140;6.498;2023-08-21T06:59:53;16.40;99.90
52879;DHT22;38747;53.140;6.498;2023-08-21T07:02:19;16.40;99.90
52879;DHT22;38747;53.140;6.498;2023-08-21T07:04:44;16.50;99.90
52879;DHT22;38747;53.140;6.498;2023-08-21T07:07:10;16.60;99.90
52879;DHT22;38747;53.140;6.498;2023-08-21T07:09:35;16.70;99.90
52879;DHT22;38747;53.140;6.498;2023-08-21T07:12:01;16.70;99.90
52879;DHT22;38747;53.140;6.498;2023-08-21T07:14:28;16.80;99.90
52879;DHT22;38747;53.140;6.498;2023-08-21T07:16:54;16.90;99.90
52879;DHT22;38747;53.140;6.498;2023-08-21T07:19:20;16.90;99.90
52879;DHT22;38747;53.140;6.498;2023-08-21T07:21:45;17.00;99.90
52879;DHT22;38747;53.140;6.498;2023-08-21T07:24:11;17.10;99.90
52879;DHT22;38747;53.140;6.498;2023-08-21T07:26:36;17.20;99.90
52879;DHT22;38747;53.140;6.498;2023-08-21T07:29:02;17.30;99.90
52879;DHT22;38747;53.140;6.498;2023-08-21T07:31:30;17.30;99.90
52879;DHT22;38747;53.140;6.498;2023-08-21T07:33:55;17.40;99.90
52879;DHT22;38747;53.140;6.498;2023-08-21T07:36:21;17.50;99.90
52879;DHT22;38747;53.140;6.498;2023-08-21T07:38:47;17.50;99.90
52879;DHT22;38747;53.140;6.498;2023-08-21T07:41:13;17.70;99.90
52879;DHT22;38747;53.140;6.498;2023-08-21T07:43:43;17.80;99.90
52879;DHT22;38747;53.140;6.498;2023-08-21T07:46:10;17.80;99.90
52879;DHT22;38747;53.140;6.498;2023-08-21T07:48:42;17.90;99.90
52879;DHT22;38747;53.140;6.498;2023-08-21T07:51:08;18.00;99.90
52879;DHT22;38747;53.140;6.498;2023-08-21T07:53:34;18.10;99.90
52879;DHT22;38747;53.140;6.498;2023-08-21T07:56:01;18.20;99.90
52879;DHT22;38747;53.140;6.498;2023-08-21T07:58:27;18.20;99.90
52879;DHT22;38747;53.140;6.498;2023-08-21T08:00:52;18.30;99.90
52879;DHT22;38747;53.140;6.498;2023-08-21T08:03:18;18.30;99.90
52879;DHT22;38747;53.140;6.498;2023-08-21T08:05:44;18.40;99.90
52879;DHT22;38747;53.140;6.498;2023-08-21T08:08:10;18.50;99.90
52879;DHT22;38747;53.140;6.498;2023-08-21T08:10:42;18.60;98.20
52879;DHT22;38747;53.140;6.498;2023-08-21T08:13:07;18.60;99.60
52879;DHT22;38747;53.140;6.498;2023-08-21T08:15:33;18.70;98.70
52879;DHT22;38747;53.140;6.498;2023-08-21T08:18:01;18.70;98.20
52879;DHT22;38747;53.140;6.498;2023-08-21T08:20:26;18.80;97.70
52879;DHT22;38747;53.140;6.498;2023-08-21T08:22:52;18.80;95.50
52879;DHT22;38747;53.140;6.498;2023-08-21T08:25:18;18.90;95.70
52879;DHT22;38747;53.140;6.498;2023-08-21T08:27:44;19.00;95.30
52879;DHT22;38747;53.140;6.498;2023-08-21T08:30:10;19.00;94.00
52879;DHT22;38747;53.140;6.498;2023-08-21T08:32:36;19.10;93.80
52879;DHT22;38747;53.140;6.498;2023-08-21T08:35:02;19.20;92.20
52879;DHT22;38747;53.140;6.498;2023-08-21T08:37:28;19.30;91.50
52879;DHT22;38747;53.140;6.498;2023-08-21T08:39:54;19.40;90.30
52879;DHT22;38747;53.140;6.498;2023-08-21T08:42:19;19.40;86.80
52879;DHT22;38747;53.140;6.498;2023-08-21T08:44:46;19.50;86.70
52879;DHT22;38747;53.140;6.498;2023-08-21T08:47:13;19.60;86.20
52879;DHT22;38747;53.140;6.498;2023-08-21T08:49:39;19.70;85.40
52879;DHT22;38747;53.140;6.498;2023-08-21T08:52:05;19.90;82.10
52879;DHT22;38747;53.140;6.498;2023-08-21T08:54:31;20.10;77.80
52879;DHT22;38747;53.140;6.498;2023-08-21T08:56:58;20.20;73.50
52879;DHT22;38747;53.140;6.498;2023-08-21T08:59:24;20.40;72.50
52879;DHT22;38747;53.140;6.498;2023-08-21T09:01:50;20.50;67.30
52879;DHT22;38747;53.140;6.498;2023-08-21T09:04:15;20.70;67.20
52879;DHT22;38747;53.140;6.498;2023-08-21T09:06:41;20.80;64.60
52879;DHT22;38747;53.140;6.498;2023-08-21T09:09:08;21.00;61.80
52879;DHT22;38747;53.140;6.498;2023-08-21T09:11:41;21.20;52.50
52879;DHT22;38747;53.140;6.498;2023-08-21T09:14:07;21.30;51.70
52879;DHT22;38747;53.140;6.498;2023-08-21T09:16:33;21.40;44.50
52879;DHT22;38747;53.140;6.498;2023-08-21T09:18:59;21.60;44.30
52879;DHT22;38747;53.140;6.498;2023-08-21T09:21:26;21.70;42.80
52879;DHT22;38747;53.140;6.498;2023-08-21T09:23:57;21.90;38.40
52879;DHT22;38747;53.140;6.498;2023-08-21T09:26:24;22.00;26.70
52879;DHT22;38747;53.140;6.498;2023-08-21T09:28:51;22.10;22.70
52879;DHT22;38747;53.140;6.498;2023-08-21T09:31:29;22.30;10.90
52879;DHT22;38747;53.140;6.498;2023-08-21T09:34:03;22.30;1.00
52879;DHT22;38747;53.140;6.498;2023-08-21T09:36:32;22.30;1.00
52879;DHT22;38747;53.140;6.498;2023-08-21T09:38:59;22.40;1.00
52879;DHT22;38747;53.140;6.498;2023-08-21T09:41:25;22.60;1.00
52879;DHT22;38747;53.140;6.498;2023-08-21T09:43:51;22.60;1.00
52879;DHT22;38747;53.140;6.498;2023-08-21T09:46:21;22.80;1.00
52879;DHT22;38747;53.140;6.498;2023-08-21T09:48:49;22.90;1.00
52879;DHT22;38747;53.140;6.498;2023-08-21T09:51:17;23.00;1.00
52879;DHT22;38747;53.140;6.498;2023-08-21T09:53:43;23.20;1.00
52879;DHT22;38747;53.140;6.498;2023-08-21T09:56:09;23.30;1.00
52879;DHT22;38747;53.140;6.498;2023-08-21T09:58:35;23.50;1.00
52879;DHT22;38747;53.140;6.498;2023-08-21T10:01:07;23.50;1.00
52879;DHT22;38747;53.140;6.498;2023-08-21T10:03:39;23.60;1.00
52879;DHT22;38747;53.140;6.498;2023-08-21T10:06:07;23.80;1.00
52879;DHT22;38747;53.140;6.498;2023-08-21T10:08:37;23.80;1.00
52879;DHT22;38747;53.140;6.498;2023-08-21T10:11:07;23.90;1.00
52879;DHT22;38747;53.140;6.498;2023-08-21T10:13:34;23.90;1.00
52879;DHT22;38747;53.140;6.498;2023-08-21T10:16:01;24.10;1.00
52879;DHT22;38747;53.140;6.498;2023-08-21T10:18:35;24.20;1.00
52879;DHT22;38747;53.140;6.498;2023-08-21T10:21:15;24.20;1.00
52879;DHT22;38747;53.140;6.498;2023-08-21T10:23:41;24.30;1.00
52879;DHT22;38747;53.140;6.498;2023-08-21T10:26:10;24.40;1.00
52879;DHT22;38747;53.140;6.498;2023-08-21T10:28:53;24.50;1.00
52879;DHT22;38747;53.140;6.498;2023-08-21T10:33:51;24.60;99.90
52879;DHT22;38747;53.140;6.498;2023-08-21T10:39:03;24.80;1.00
52879;DHT22;38747;53.140;6.498;2023-08-21T10:41:30;24.90;1.00
52879;DHT22;38747;53.140;6.498;2023-08-21T10:43:55;25.00;1.00
52879;DHT22;38747;53.140;6.498;2023-08-21T10:46:21;25.10;1.00
52879;DHT22;38747;53.140;6.498;2023-08-21T10:48:47;25.20;1.00
52879;DHT22;38747;53.140;6.498;2023-08-21T10:51:12;25.10;1.00
52879;DHT22;38747;53.140;6.498;2023-08-21T10:53:39;25.20;99.90
52879;DHT22;38747;53.140;6.498;2023-08-21T10:56:07;25.20;99.90
52879;DHT22;38747;53.140;6.498;2023-08-21T10:58:42;25.20;99.90
52879;DHT22;38747;53.140;6.498;2023-08-21T11:01:08;25.20;99.90
52879;DHT22;38747;53.140;6.498;2023-08-21T11:03:37;25.30;99.90
52879;DHT22;38747;53.140;6.498;2023-08-21T11:06:04;25.40;99.90
52879;DHT22;38747;53.140;6.498;2023-08-21T11:08:34;25.40;99.90
52879;DHT22;38747;53.140;6.498;2023-08-21T11:11:02;25.50;99.90
52879;DHT22;38747;53.140;6.498;2023-08-21T11:13:28;25.60;99.90
52879;DHT22;38747;53.140;6.498;2023-08-21T11:16:00;25.60;99.90
52879;DHT22;38747;53.140;6.498;2023-08-21T11:18:39;25.70;97.80
52879;DHT22;38747;53.140;6.498;2023-08-21T11:21:11;25.80;99.90
52879;DHT22;38747;53.140;6.498;2023-08-21T11:23:39;25.90;99.90
52879;DHT22;38747;53.140;6.498;2023-08-21T11:26:06;26.00;99.90
52879;DHT22;38747;53.140;6.498;2023-08-21T11:28:32;26.00;99.90
52879;DHT22;38747;53.140;6.498;2023-08-21T11:30:59;26.00;1.00
52879;DHT22;38747;53.140;6.498;2023-08-21T11:33:28;26.00;99.90
52879;DHT22;38747;53.140;6.498;2023-08-21T11:35:55;26.10;99.90
52879;DHT22;38747;53.140;6.498;2023-08-21T11:38:24;26.20;99.90
52879;DHT22;38747;53.140;6.498;2023-08-21T11:41:02;26.30;99.90
52879;DHT22;38747;53.140;6.498;2023-08-21T11:46:04;26.50;1.00
52879;DHT22;38747;53.140;6.498;2023-08-21T11:48:30;26.60;14.90
52879;DHT22;38747;53.140;6.498;2023-08-21T11:50:56;26.70;90.10
52879;DHT22;38747;53.140;6.498;2023-08-21T11:53:39;26.70;71.00
52879;DHT22;38747;53.140;6.498;2023-08-21T11:56:13;26.70;1.00
52879;DHT22;38747;53.140;6.498;2023-08-21T11:58:46;26.70;99.90
52879;DHT22;38747;53.140;6.498;2023-08-21T12:01:18;26.80;99.50
52879;DHT22;38747;53.140;6.498;2023-08-21T12:03:44;27.00;1.00
52879;DHT22;38747;53.140;6.498;2023-08-21T12:06:11;26.80;99.90
52879;DHT22;38747;53.140;6.498;2023-08-21T12:08:38;26.70;99.90
52879;DHT22;38747;53.140;6.498;2023-08-21T12:11:05;26.60;1.00
52879;DHT22;38747;53.140;6.498;2023-08-21T12:13:31;26.60;92.10
52879;DHT22;38747;53.140;6.498;2023-08-21T12:15:57;26.60;79.00
52879;DHT22;38747;53.140;6.498;2023-08-21T12:18:23;26.60;1.00
52879;DHT22;38747;53.140;6.498;2023-08-21T12:20:49;26.60;1.00
52879;DHT22;38747;53.140;6.498;2023-08-21T12:23:14;26.60;1.00
52879;DHT22;38747;53.140;6.498;2023-08-21T12:25:40;26.80;1.00
52879;DHT22;38747;53.140;6.498;2023-08-21T12:28:07;26.90;1.00
52879;DHT22;38747;53.140;6.498;2023-08-21T12:30:33;27.00;1.00
52879;DHT22;38747;53.140;6.498;2023-08-21T12:33:02;26.90;99.90
52879;DHT22;38747;53.140;6.498;2023-08-21T12:35:28;26.80;1.00
52879;DHT22;38747;53.140;6.498;2023-08-21T12:37:56;26.70;1.00
52879;DHT22;38747;53.140;6.498;2023-08-21T12:40:22;26.80;18.30
52879;DHT22;38747;53.140;6.498;2023-08-21T12:42:48;26.90;1.00
52879;DHT22;38747;53.140;6.498;2023-08-21T12:45:14;27.00;1.00
52879;DHT22;38747;53.140;6.498;2023-08-21T12:47:39;27.10;1.00
52879;DHT22;38747;53.140;6.498;2023-08-21T12:50:06;27.20;1.00
52879;DHT22;38747;53.140;6.498;2023-08-21T12:52:31;27.40;99.90
52879;DHT22;38747;53.140;6.498;2023-08-21T12:54:57;27.50;99.90
52879;DHT22;38747;53.140;6.498;2023-08-21T12:57:25;27.50;87.50
52879;DHT22;38747;53.140;6.498;2023-08-21T12:59:51;27.50;99.90
52879;DHT22;38747;53.140;6.498;2023-08-21T13:02:17;27.60;99.90
52879;DHT22;38747;53.140;6.498;2023-08-21T13:04:44;27.60;99.90
52879;DHT22;38747;53.140;6.498;2023-08-21T13:07:09;27.60;99.90
52879;DHT22;38747;53.140;6.498;2023-08-21T13:09:35;27.70;99.90
52879;DHT22;38747;53.140;6.498;2023-08-21T13:12:01;27.70;99.90
52879;DHT22;38747;53.140;6.498;2023-08-21T13:14:27;27.50;99.90
52879;DHT22;38747;53.140;6.498;2023-08-21T13:16:52;27.30;99.90
52879;DHT22;38747;53.140;6.498;2023-08-21T13:19:18;27.20;99.90
52879;DHT22;38747;53.140;6.498;2023-08-21T13:21:43;27.10;1.00
52879;DHT22;38747;53.140;6.498;2023-08-21T13:24:10;27.00;75.50
52879;DHT22;38747;53.140;6.498;2023-08-21T13:26:36;26.70;99.90
52879;DHT22;38747;53.140;6.498;2023-08-21T13:29:01;26.50;99.90
52879;DHT22;38747;53.140;6.498;2023-08-21T13:31:27;26.30;99.90
52879;DHT22;38747;53.140;6.498;2023-08-21T13:33:54;26.10;99.90
52879;DHT22;38747;53.140;6.498;2023-08-21T13:36:20;26.30;99.90
52879;DHT22;38747;53.140;6.498;2023-08-21T13:38:47;26.50;99.90
52879;DHT22;38747;53.140;6.498;2023-08-21T13:41:12;26.60;99.90
52879;DHT22;38747;53.140;6.498;2023-08-21T13:43:38;26.70;1.00
52879;DHT22;38747;53.140;6.498;2023-08-21T13:46:04;26.80;95.70
52879;DHT22;38747;53.140;6.498;2023-08-21T13:48:31;26.70;96.60
52879;DHT22;38747;53.140;6.498;2023-08-21T13:50:56;26.70;99.90
52879;DHT22;38747;53.140;6.498;2023-08-21T13:53:22;26.70;99.90
52879;DHT22;38747;53.140;6.498;2023-08-21T13:55:50;26.80;99.90
52879;DHT22;38747;53.140;6.498;2023-08-21T13:58:15;26.80;99.90
52879;DHT22;38747;53.140;6.498;2023-08-21T14:00:41;26.80;99.90
52879;DHT22;38747;53.140;6.498;2023-08-21T14:03:07;26.90;99.90
52879;DHT22;38747;53.140;6.498;2023-08-21T14:05:32;26.90;99.90
52879;DHT22;38747;53.140;6.498;2023-08-21T14:08:02;26.90;1.00
52879;DHT22;38747;53.140;6.498;2023-08-21T14:10:28;26.70;99.90
52879;DHT22;38747;53.140;6.498;2023-08-21T14:12:55;26.70;99.90
52879;DHT22;38747;53.140;6.498;2023-08-21T14:15:22;26.70;99.90
52879;DHT22;38747;53.140;6.498;2023-08-21T14:17:48;26.80;1.00
52879;DHT22;38747;53.140;6.498;2023-08-21T14:20:15;26.80;99.90
52879;DHT22;38747;53.140;6.498;2023-08-21T14:22:41;26.80;41.80
52879;DHT22;38747;53.140;6.498;2023-08-21T14:25:06;26.90;1.00
52879;DHT22;38747;53.140;6.498;2023-08-21T14:27:33;26.90;56.30
52879;DHT22;38747;53.140;6.498;2023-08-21T14:29:59;27.00;99.90
52879;DHT22;38747;53.140;6.498;2023-08-21T14:32:28;26.90;99.90
52879;DHT22;38747;53.140;6.498;2023-08-21T14:34:54;26.80;53.50
52879;DHT22;38747;53.140;6.498;2023-08-21T14:37:20;26.80;1.00
52879;DHT22;38747;53.140;6.498;2023-08-21T14:39:46;26.80;1.00
52879;DHT22;38747;53.140;6.498;2023-08-21T14:42:13;26.70;57.50
52879;DHT22;38747;53.140;6.498;2023-08-21T14:44:38;26.70;99.90
52879;DHT22;38747;53.140;6.498;2023-08-21T14:47:04;26.60;99.90
52879;DHT22;38747;53.140;6.498;2023-08-21T14:49:30;26.50;99.90
52879;DHT22;38747;53.140;6.498;2023-08-21T14:51:56;26.40;99.90
52879;DHT22;38747;53.140;6.498;2023-08-21T14:54:22;26.30;99.90
52879;DHT22;38747;53.140;6.498;2023-08-21T14:56:49;26.20;99.90
52879;DHT22;38747;53.140;6.498;2023-08-21T14:59:15;26.20;99.90
52879;DHT22;38747;53.140;6.498;2023-08-21T15:01:41;26.10;99.90
52879;DHT22;38747;53.140;6.498;2023-08-21T15:04:07;26.00;99.90
52879;DHT22;38747;53.140;6.498;2023-08-21T15:06:37;26.00;95.00
52879;DHT22;38747;53.140;6.498;2023-08-21T15:09:08;26.00;47.50
52879;DHT22;38747;53.140;6.498;2023-08-21T15:11:34;26.00;99.90
52879;DHT22;38747;53.140;6.498;2023-08-21T15:14:03;26.00;99.90
52879;DHT22;38747;53.140;6.498;2023-08-21T15:16:30;26.00;90.30
52879;DHT22;38747;53.140;6.498;2023-08-21T15:18:56;26.00;99.90
52879;DHT22;38747;53.140;6.498;2023-08-21T15:21:21;25.90;21.30
52879;DHT22;38747;53.140;6.498;2023-08-21T15:23:47;25.90;99.90
52879;DHT22;38747;53.140;6.498;2023-08-21T15:26:13;25.90;99.90
52879;DHT22;38747;53.140;6.498;2023-08-21T15:28:38;26.00;1.00
52879;DHT22;38747;53.140;6.498;2023-08-21T15:31:04;26.00;99.90
52879;DHT22;38747;53.140;6.498;2023-08-21T15:33:30;26.00;1.00
52879;DHT22;38747;53.140;6.498;2023-08-21T15:35:55;26.00;99.90
52879;DHT22;38747;53.140;6.498;2023-08-21T15:38:21;26.00;1.00
52879;DHT22;38747;53.140;6.498;2023-08-21T15:40:47;26.00;1.00